Flight Track Log - Related Links

Times and Time Zones

All times are in EDT time to prevent confusion due to time zone crossing. See the UAL4563 flight status page for this flight to view local times or setup timezone preferences in your user account.

Time Position Orientation Groundspeed Altitude Reporting Facility
EDT Latitude Longitude Course Direction KTS MPH feet Rate Location/Type
Wed 08:59:43 PM 41.9667 -87.8500 174° South 175 201 3,000  Level Chicago TRACON
Wed 09:00:43 PM 41.9167 -87.8000 143° Southeast 210 242 4,600 1,068 Climbing Chicago TRACON
Wed 09:01:41 PM 41.8636 -87.7803 165° South 226 260 5,100 500 Climbing Chicago Center
Wed 09:02:00 PM 41.6060 -87.6100 173° South  Level Estimated
Wed 09:02:43 PM 41.7947 -87.7744 176° South 243 280 5,600  Level Chicago Center
Wed 09:03:00 PM 41.5119 -87.5364 169° South  Level Estimated
Wed 09:03:45 PM 41.7253 -87.7503 165° South 256 295 7,900  Level Chicago Center
Wed 09:04:00 PM 41.4035 -87.5215 174° South  Level FlightAware Approximate
Wed 09:04:47 PM 41.6569 -87.7100 156° South 265 305 9,900  Level Chicago Center
Wed 09:05:49 PM 41.5828 -87.6658 156° South 286 329 11,400 1,548 Climbing Chicago Center
Wed 09:06:51 PM 41.5053 -87.6197 156° South 299 344 13,100 1,113 Climbing Chicago Center
Wed 09:07:53 PM 41.4236 -87.5728 157° South 313 360 13,700 581 Climbing Chicago Center
Wed 09:08:55 PM 41.3025 -87.5517 173° South 359 413 14,300 629 Climbing Chicago Center
Wed 09:09:57 PM 41.1994 -87.5333 172° South 370 426 15,000 878 Climbing Chicago Center
Wed 09:10:58 PM 41.0964 -87.5058 169° South 376 433 16,100 1,073 Climbing Chicago Center
Wed 09:12:00 PM 40.9958 -87.4789 169° South 372 428 17,200 919 Climbing Chicago Center
Wed 09:13:02 PM 40.8947 -87.4500 168° South 372 428 18,000 823 Climbing Chicago Center
Wed 09:14:04 PM 40.7922 -87.4247 169° South 374 430 18,900 1,016 Climbing Chicago Center
Wed 09:15:06 PM 40.6689 -87.3925 169° South 376 433 20,100 1,065 Climbing Chicago Center
Wed 09:16:08 PM 40.5647 -87.3647 169° South 382 440 21,100 919 Climbing Chicago Center
Wed 09:17:10 PM 40.4600 -87.3369 169° South 384 442 22,000 976 Climbing Chicago Center
Wed 09:18:11 PM 40.3511 -87.2892 162° South 390 449 23,100 1,220 Climbing Chicago Center
Wed 09:19:13 PM 40.2525 -87.2428 160° South 380 437 24,500 1,355 Climbing Chicago Center
Wed 09:20:15 PM 40.1578 -87.1914 157° South 370 426 25,900 1,366 Climbing Chicago Center
Wed 09:20:54 PM 40.1047 -87.1489 149° Southeast 364 419 26,800 1,380 Climbing Indianapolis Center
Wed 09:21:55 PM 40.0194 -87.0806 148° Southeast 362 417 28,200 1,366 Climbing Indianapolis Center
Wed 09:22:57 PM 39.9197 -86.9992 148° Southeast 355 409 29,600 1,122 Climbing Indianapolis Center
Wed 09:23:58 PM 39.8344 -86.9317 149° Southeast 360 414 30,500 934 Climbing Indianapolis Center
Wed 09:24:59 PM 39.7489 -86.8625 148° Southeast 364 419 31,500 927 Climbing Indianapolis Center
Wed 09:26:01 PM 39.6622 -86.7906 147° Southeast 371 427 32,400 927 Climbing Indianapolis Center
Wed 09:27:02 PM 39.5758 -86.7186 147° Southeast 373 429 33,400 934 Climbing Indianapolis Center
Wed 09:28:03 PM 39.4881 -86.6461 147° Southeast 377 434 34,300 780 Climbing Indianapolis Center
Wed 09:29:05 PM 39.4008 -86.5733 147° Southeast 377 434 35,000 341 Climbing Indianapolis Center
Wed 09:30:06 PM 39.2883 -86.4814 148° Southeast 400 460 35,000 246 Level Indianapolis Center
Wed 09:31:07 PM 39.1917 -86.4014 147° Southeast 411 473 35,500 732 Climbing Indianapolis Center
Wed 09:32:09 PM 39.0939 -86.3211 147° Southeast 418 481 36,500 732 Climbing Indianapolis Center
Wed 09:33:10 PM 38.9997 -86.2436 147° Southeast 408 470 37,000 246 Climbing Indianapolis Center
Wed 09:34:11 PM 38.9022 -86.1647 148° Southeast 414 476 37,000  Level Indianapolis Center
Wed 09:35:13 PM 38.7872 -86.0728 148° Southeast 425 489 37,000  Level Indianapolis Center
Wed 09:36:14 PM 38.6833 -85.9875 147° Southeast 436 502 37,000  Level Indianapolis Center
Wed 09:37:15 PM 38.5775 -85.9033 148° Southeast 441 507 37,000  Level Indianapolis Center
Wed 09:38:17 PM 38.4722 -85.8194 148° Southeast 443 510 37,000  Level Indianapolis Center
Wed 09:39:18 PM 38.3686 -85.7356 148° Southeast 438 504 37,000  Level Indianapolis Center
Wed 09:40:19 PM 38.2658 -85.6539 148° Southeast 436 502 37,000  Level Indianapolis Center
Wed 09:41:20 PM 38.1647 -85.5731 148° Southeast 430 495 37,000  Level Indianapolis Center
Wed 09:42:22 PM 38.0617 -85.4931 149° Southeast 429 494 37,000  Level Indianapolis Center
Wed 09:43:23 PM 37.9603 -85.4125 148° Southeast 426 490 37,000  Level Indianapolis Center
Wed 09:44:24 PM 37.8592 -85.3333 148° Southeast 426 490 37,000  Level Indianapolis Center
Wed 09:45:26 PM 37.7542 -85.2506 148° Southeast 423 487 37,000  Level Indianapolis Center
Wed 09:46:27 PM 37.6544 -85.1717 148° Southeast 424 488 37,000  Level Indianapolis Center
Wed 09:47:28 PM 37.5539 -85.0950 149° Southeast 423 487 37,000  Level Indianapolis Center
Wed 09:48:29 PM 37.4381 -85.0061 149° Southeast 418 481 37,000  Level Indianapolis Center
Wed 09:49:31 PM 37.3386 -84.9278 148° Southeast 421 484 37,000  Level Indianapolis Center
Wed 09:50:32 PM 37.2389 -84.8519 149° Southeast 420 483 37,000  Level Indianapolis Center
Wed 09:51:33 PM 37.1392 -84.7742 148° Southeast 421 484 37,000  Level Indianapolis Center
Wed 09:52:34 PM 37.0344 -84.6944 149° Southeast 419 482 37,000  Level Indianapolis Center
Wed 09:53:35 PM 36.9344 -84.6194 149° Southeast 419 482 37,000  Level Indianapolis Center
Wed 09:54:37 PM 36.8336 -84.5425 149° Southeast 421 484 37,000  Level Indianapolis Center
Wed 09:55:38 PM 36.7394 -84.4697 148° Southeast 422 486 37,000  Level Indianapolis Center
Wed 09:56:39 PM 36.6394 -84.3942 149° Southeast 421 484 37,000  Level Indianapolis Center
Wed 09:57:40 PM 36.5214 -84.3056 149° Southeast 423 487 37,000  Level Indianapolis Center
Wed 09:58:41 PM 36.4308 -84.2369 149° Southeast 423 487 37,000  Level Indianapolis Center
Wed 09:59:42 PM 36.3281 -84.1614 149° Southeast 425 489 37,000  Level Indianapolis Center
Wed 10:00:44 PM 36.2258 -84.0842 149° Southeast 426 490 37,000  Level Indianapolis Center
Wed 10:01:45 PM 36.1244 -84.0089 149° Southeast 424 488 37,000  Level Indianapolis Center
Wed 10:02:55 PM 36.0019 -83.9181 149° Southeast 422 486 37,000  Level Atlanta Center
Wed 10:03:55 PM 35.9017 -83.8439 149° Southeast 422 486 37,000  Level Atlanta Center
Wed 10:04:55 PM 35.7994 -83.7700 150° Southeast 422 486 37,000  Level Atlanta Center
Wed 10:05:55 PM 35.6969 -83.6961 150° Southeast 422 486 37,000  Level Atlanta Center
Wed 10:06:55 PM 35.5967 -83.6225 149° Southeast 423 487 37,000  Level Atlanta Center
Wed 10:07:55 PM 35.4942 -83.5464 149° Southeast 423 487 37,000  Level Atlanta Center
Wed 10:08:55 PM 35.3914 -83.4706 149° Southeast 423 487 37,000  Level Atlanta Center
Wed 10:09:55 PM 35.2889 -83.4000 151° Southeast 423 487 37,000  Level Atlanta Center
Wed 10:10:55 PM 35.1864 -83.3297 151° Southeast 423 487 37,000  Level Atlanta Center
Wed 10:11:55 PM 35.0856 -83.2519 148° Southeast 423 487 37,000  Level Atlanta Center
Wed 10:12:55 PM 34.9808 -83.1769 150° Southeast 423 487 37,000  Level Atlanta Center
Wed 10:13:55 PM 34.8653 -83.0919 149° Southeast 433 498 37,000  Level Atlanta Center
Wed 10:14:55 PM 34.7625 -83.0147 148° Southeast 433 498 37,000  Level Atlanta Center
Wed 10:15:55 PM 34.6597 -82.9428 150° Southeast 428 493 37,000  Level Atlanta Center
Wed 10:16:55 PM 34.5567 -82.8711 150° Southeast 435 501 37,000 -500 Level Atlanta Center
Wed 10:17:55 PM 34.4517 -82.7969 150° Southeast 435 501 36,000 -1,050 Descending Atlanta Center
Wed 10:18:55 PM 34.3422 -82.7206 150° Southeast 444 511 34,900 -1,050 Descending Atlanta Center
Wed 10:19:55 PM 34.2331 -82.6469 151° Southeast 444 511 33,900 -1,050 Descending Atlanta Center
Wed 10:20:55 PM 34.1361 -82.5756 149° Southeast 435 501 32,800 -1,000 Descending Atlanta Center
Wed 10:21:55 PM 34.0394 -82.5072 150° Southeast 435 501 31,900 -1,000 Descending Atlanta Center
Wed 10:22:55 PM 33.9319 -82.4339 150° Southeast 435 501 30,800 -1,050 Descending Atlanta Center
Wed 10:23:55 PM 33.8244 -82.3583 150° Southeast 440 506 29,800 -1,000 Descending Atlanta Center
Wed 10:24:55 PM 33.7147 -82.2806 149° Southeast 458 527 28,800 -1,000 Descending Atlanta Center
Wed 10:25:55 PM 33.6031 -82.2031 150° Southeast 458 527 27,800 -995 Descending Atlanta Center
Wed 10:28:26 PM 33.3178 -82.0078 150° Southeast 459 528 25,300 -1,052 Descending Jacksonville Center
Wed 10:29:26 PM 33.2086 -81.9317 150° Southeast 459 528 24,100 -1,650 Descending Jacksonville Center
Wed 10:30:26 PM 33.1017 -81.8586 150° Southeast 454 522 22,000 -2,250 Descending Jacksonville Center
Wed 10:31:26 PM 33.0031 -81.7928 151° Southeast 434 499 19,600 -2,350 Descending Jacksonville Center
Wed 10:32:26 PM 32.9064 -81.7222 148° Southeast 417 480 17,300 -2,571 Descending Jacksonville Center
Wed 10:33:25 PM 32.8119 -81.6617 152° Southeast 404 465 14,500 -2,750 Descending Jacksonville Center
Wed 10:34:26 PM 32.7172 -81.5986 151° Southeast 396 456 11,800 -1,736 Descending Jacksonville Center
Wed 10:35:26 PM 32.6247 -81.5383 151° Southeast 391 450 11,000 -655 Descending Jacksonville Center
Wed 10:36:25 PM 32.5386 -81.4903 155° Southeast 350 403 10,500 -908 Descending Jacksonville Center
Wed 10:37:25 PM 32.4592 -81.4597 162° South 319 367 9,200 -1,289 Descending Jacksonville Center
Wed 10:38:26 PM 32.3836 -81.4289 161° South 291 335 7,900 -1,488 Descending Jacksonville Center
Wed 10:39:26 PM 32.3186 -81.4003 160° South 286 329 6,200 -1,800 Descending Jacksonville Center
Wed 10:40:26 PM 32.2450 -81.3744 163° South 286 329 4,300 -1,950 Descending Jacksonville Center
Wed 10:41:26 PM 32.1739 -81.3464 162° South 265 305 2,300 -1,450 Descending Jacksonville Center
Wed 10:42:26 PM 32.1336 -81.3103 143° Southeast 211 243 1,400 -750 Descending Jacksonville Center
Wed 10:43:26 PM 32.1269 -81.2686 101° East 143 165 800 -600 Descending Jacksonville Center

Login

Don't have an account? Register now (free) for customized features, flight alerts, and more!